Ontario Center, New York
Current Conditions -  °F | °C
As of 12:54 PM on Monday 22 Dec 2014 (Local Time) from KROC Reporting Station
Few Clouds Few Clouds  
Wind Chill: 32°   Ceiling: Unl
Heat Index: 37°   Visibility: 10mi
Dew Point: 24°   Wind: 6mph
Humidity: 59%   Direction: NA
Pressure: 30.14"   Gusts: NA
Location:  43.23°N, 77.31°W
Report Text: KROC 221754Z VRB05KT 10SM FEW150 FEW250 03/M04 A3014 RMK AO2 SLP216 T00281044 10028 21028 58030
Loading
Personal Weather Stations






























Interactive Weather Map New forecast layout! Learn more

10-Day Weather Forecast

Advertisements
Track Severe Weather on mobile